createdAt,value
2023-03-10T00:01:31.767Z,79.10
2023-03-10T00:04:01.080Z,79.10
2023-03-10T00:06:32.153Z,79.30
2023-03-10T00:08:59.653Z,79.10
2023-03-10T00:11:26.775Z,78.80
2023-03-10T00:13:53.657Z,78.30
2023-03-10T00:16:26.737Z,78.30
2023-03-10T00:18:54.767Z,77.90
2023-03-10T00:21:28.224Z,77.50
2023-03-10T00:23:55.835Z,77.60
2023-03-10T00:26:23.850Z,77.90
2023-03-10T00:28:51.089Z,77.80
2023-03-10T00:31:23.448Z,77.60
2023-03-10T00:33:52.231Z,77.30
2023-03-10T00:36:20.613Z,77.20
2023-03-10T00:38:49.713Z,77.50
2023-03-10T00:41:21.500Z,77.40
2023-03-10T00:43:49.374Z,78.50
2023-03-10T00:46:16.874Z,77.30
2023-03-10T00:48:44.613Z,77.10
2023-03-10T00:51:12.047Z,77.20
2023-03-10T00:53:40.263Z,77.20
2023-03-10T00:56:13.134Z,77.00
2023-03-10T00:58:41.022Z,77.00
2023-03-10T01:01:17.384Z,77.20
2023-03-10T01:03:44.769Z,77.40
2023-03-10T01:06:12.439Z,77.00
2023-03-10T01:08:39.629Z,77.30
2023-03-10T01:11:06.745Z,77.60
2023-03-10T01:13:33.909Z,77.60
2023-03-10T01:16:00.930Z,77.20
2023-03-10T01:18:27.780Z,77.30
2023-03-10T01:20:54.585Z,77.50
2023-03-10T01:23:23.448Z,77.50
2023-03-10T01:25:50.532Z,78.30
2023-03-10T01:28:19.008Z,78.30
2023-03-10T01:30:46.139Z,77.30
2023-03-10T01:33:13.624Z,77.30
2023-03-10T01:35:41.027Z,77.00
2023-03-10T01:38:08.847Z,76.90
2023-03-10T01:40:37.560Z,76.80
2023-03-10T01:43:28.676Z,76.90
2023-03-10T01:46:18.319Z,76.90
2023-03-10T01:48:45.538Z,76.90
2023-03-10T01:51:12.375Z,76.80
2023-03-10T01:53:39.843Z,76.80
2023-03-10T01:56:07.130Z,76.70
2023-03-10T01:58:46.075Z,76.40
2023-03-10T02:01:14.430Z,76.50
2023-03-10T02:03:48.284Z,76.60
2023-03-10T02:06:19.492Z,76.60
2023-03-10T02:08:54.237Z,76.90
2023-03-10T02:11:22.243Z,77.20
2023-03-10T02:13:51.514Z,77.00
2023-03-10T02:16:18.876Z,77.30
2023-03-10T02:18:47.624Z,77.40
2023-03-10T02:21:24.030Z,77.50
2023-03-10T02:24:05.040Z,77.60
2023-03-10T02:26:44.070Z,77.90
2023-03-10T02:29:20.528Z,78.20
2023-03-10T02:31:48.346Z,78.20
2023-03-10T02:34:15.372Z,78.30
2023-03-10T02:36:42.295Z,78.30
2023-03-10T02:39:10.846Z,78.40
2023-03-10T02:41:40.116Z,78.30
2023-03-10T02:44:14.366Z,78.30
2023-03-10T02:46:41.382Z,78.20
2023-03-10T02:49:12.622Z,78.40
2023-03-10T02:51:46.846Z,78.50
2023-03-10T02:54:16.091Z,78.60
2023-03-10T02:56:43.454Z,78.60
2023-03-10T02:59:11.972Z,78.40
2023-03-10T03:01:43.697Z,78.20
2023-03-10T03:04:10.847Z,78.20
2023-03-10T03:06:39.734Z,78.30
2023-03-10T03:09:07.158Z,78.30
2023-03-10T03:11:34.038Z,78.20
2023-03-10T03:14:01.473Z,78.20
2023-03-10T03:16:30.014Z,78.30
2023-03-10T03:19:00.693Z,78.30
2023-03-10T03:21:28.840Z,78.50
2023-03-10T03:23:56.007Z,78.60
2023-03-10T03:26:26.859Z,78.60
2023-03-10T03:29:00.504Z,78.60
2023-03-10T03:31:31.594Z,78.80
2023-03-10T03:34:07.672Z,78.80
2023-03-10T03:36:35.012Z,78.70
2023-03-10T03:39:02.269Z,78.80
2023-03-10T03:41:31.437Z,78.60
2023-03-10T03:43:58.567Z,78.80
2023-03-10T03:46:25.719Z,79.20
2023-03-10T03:48:53.110Z,79.10
2023-03-10T03:51:20.058Z,78.70
2023-03-10T03:53:46.922Z,78.80
2023-03-10T03:56:14.318Z,79.00
2023-03-10T03:58:43.662Z,78.70
2023-03-10T04:01:10.785Z,78.90
2023-03-10T04:03:43.149Z,78.90
2023-03-10T04:06:12.721Z,78.60
2023-03-10T04:08:39.935Z,78.20
2023-03-10T04:11:06.960Z,77.70
2023-03-10T04:13:35.934Z,77.60
2023-03-10T04:16:04.003Z,77.90
2023-03-10T04:18:34.620Z,77.80
2023-03-10T04:21:02.886Z,78.50
2023-03-10T04:23:30.705Z,77.50
2023-03-10T04:25:58.126Z,77.10
2023-03-10T04:28:26.198Z,77.00
2023-03-10T04:30:53.229Z,76.90
2023-03-10T04:33:24.469Z,76.80
2023-03-10T04:35:52.742Z,76.70
2023-03-10T04:38:23.662Z,76.50
2023-03-10T04:40:56.773Z,76.60
2023-03-10T04:43:27.714Z,76.50
2023-03-10T04:45:55.402Z,76.30
2023-03-10T04:48:24.528Z,76.10
2023-03-10T04:51:03.834Z,76.30
2023-03-10T04:53:35.884Z,76.60
2023-03-10T04:56:05.282Z,76.70
2023-03-10T04:58:34.638Z,76.80
2023-03-10T05:01:03.467Z,76.80
2023-03-10T05:03:35.326Z,76.80
2023-03-10T05:06:02.894Z,76.80
2023-03-10T05:08:30.133Z,77.30
2023-03-10T05:10:57.178Z,77.50
2023-03-10T05:13:24.042Z,77.40
2023-03-10T05:15:51.006Z,77.50
2023-03-10T05:18:18.050Z,77.20
2023-03-10T05:20:44.896Z,77.00
2023-03-10T05:23:11.767Z,77.20
2023-03-10T05:25:40.108Z,77.20
2023-03-10T05:28:07.081Z,77.40
2023-03-10T05:30:33.930Z,77.50
2023-03-10T05:33:01.071Z,77.40
2023-03-10T05:35:28.014Z,77.30
2023-03-10T05:37:55.109Z,78.10
2023-03-10T05:40:22.699Z,77.10
2023-03-10T05:42:50.560Z,77.00
2023-03-10T05:45:19.205Z,76.90
2023-03-10T05:47:46.664Z,76.90
2023-03-10T05:50:15.938Z,76.90
2023-03-10T05:52:44.319Z,76.70
2023-03-10T05:55:17.373Z,76.90
2023-03-10T05:57:45.387Z,76.70
2023-03-10T06:00:14.631Z,76.80
2023-03-10T06:02:45.186Z,76.70
2023-03-10T06:05:13.647Z,76.90
2023-03-10T06:07:41.000Z,77.00
2023-03-10T06:10:09.504Z,77.30
2023-03-10T06:12:36.337Z,77.50
2023-03-10T06:15:03.377Z,77.60
2023-03-10T06:17:30.269Z,77.80
2023-03-10T06:19:57.210Z,77.90
2023-03-10T06:22:24.036Z,77.90
2023-03-10T06:24:50.809Z,77.90
2023-03-10T06:27:17.644Z,78.00
2023-03-10T06:29:44.557Z,78.20
2023-03-10T06:32:11.425Z,78.30
2023-03-10T06:34:38.249Z,78.30
2023-03-10T06:37:05.190Z,78.40
2023-03-10T06:39:32.241Z,78.50
2023-03-10T06:42:00.446Z,79.60
2023-03-10T06:44:27.290Z,78.90
2023-03-10T06:46:54.133Z,79.00
2023-03-10T06:49:21.111Z,79.00
2023-03-10T06:51:47.997Z,79.00
2023-03-10T06:54:14.944Z,78.80
2023-03-10T06:56:41.906Z,78.80
2023-03-10T06:59:08.709Z,78.90
2023-03-10T07:01:35.779Z,78.90
2023-03-10T07:04:02.835Z,78.90
2023-03-10T07:06:30.285Z,78.90
2023-03-10T07:08:57.509Z,78.80
2023-03-10T07:11:25.542Z,78.90
2023-03-10T07:13:52.495Z,79.10
2023-03-10T07:16:19.456Z,79.10
2023-03-10T07:18:46.360Z,79.00
2023-03-10T07:21:17.367Z,79.10
2023-03-10T07:23:45.238Z,79.30
2023-03-10T07:26:14.140Z,79.20
2023-03-10T07:28:40.979Z,79.00
2023-03-10T07:31:10.767Z,78.70
2023-03-10T07:33:38.869Z,78.70
2023-03-10T07:36:08.118Z,78.80
2023-03-10T07:38:35.605Z,78.70
2023-03-10T07:41:07.688Z,78.70
2023-03-10T07:43:34.568Z,78.60
2023-03-10T07:46:08.720Z,78.80
2023-03-10T07:48:35.749Z,78.80
2023-03-10T07:51:02.856Z,78.90
2023-03-10T07:53:30.424Z,78.70
2023-03-10T07:55:57.489Z,78.70
2023-03-10T07:58:24.780Z,78.70
2023-03-10T08:00:58.552Z,78.70
2023-03-10T08:03:27.182Z,78.80
2023-03-10T08:05:54.668Z,78.90
2023-03-10T08:08:21.559Z,78.90
2023-03-10T08:10:48.403Z,78.90
2023-03-10T08:13:15.304Z,79.00
2023-03-10T08:15:42.531Z,79.00
2023-03-10T08:18:09.665Z,79.10
2023-03-10T08:20:36.842Z,79.20
2023-03-10T08:23:04.250Z,79.40
2023-03-10T08:25:31.341Z,79.40
2023-03-10T08:27:58.128Z,79.10
2023-03-10T08:30:25.319Z,79.10
2023-03-10T08:32:52.215Z,78.90
2023-03-10T08:35:19.363Z,79.10
2023-03-10T08:37:46.307Z,79.10
2023-03-10T08:40:16.205Z,79.20
2023-03-10T08:42:43.322Z,79.20
2023-03-10T08:45:12.249Z,79.10
2023-03-10T08:47:39.469Z,79.10
2023-03-10T08:50:07.730Z,79.10
2023-03-10T08:52:34.651Z,78.90
2023-03-10T08:55:01.450Z,79.00
2023-03-10T08:57:28.429Z,78.90
2023-03-10T08:59:55.273Z,78.80
2023-03-10T09:02:22.447Z,78.70
2023-03-10T09:04:50.451Z,78.60
2023-03-10T09:07:18.370Z,78.70
2023-03-10T09:09:45.277Z,78.50
2023-03-10T09:12:12.575Z,78.30
2023-03-10T09:14:39.730Z,78.00
2023-03-10T09:17:06.796Z,77.90
2023-03-10T09:19:33.770Z,78.20
2023-03-10T09:22:00.821Z,78.20
2023-03-10T09:24:27.718Z,78.00
2023-03-10T09:26:55.874Z,78.00
2023-03-10T09:29:36.429Z,77.90
2023-03-10T09:32:09.091Z,77.80
2023-03-10T09:34:36.097Z,77.90
2023-03-10T09:37:02.856Z,77.70
2023-03-10T09:39:29.687Z,77.60
2023-03-10T09:42:29.109Z,77.60
2023-03-10T09:45:09.511Z,78.00
2023-03-10T09:48:07.040Z,78.30
2023-03-10T09:50:48.689Z,78.40
2023-03-10T09:53:52.959Z,78.10
2023-03-10T09:56:24.975Z,77.90
2023-03-10T09:58:59.955Z,77.80
2023-03-10T10:01:30.889Z,78.30
2023-03-10T10:04:11.130Z,78.30
2023-03-10T10:06:39.835Z,78.20
2023-03-10T10:09:20.530Z,78.20
2023-03-10T10:11:47.496Z,78.20
2023-03-10T10:14:29.970Z,78.20
2023-03-10T10:17:19.150Z,78.40
2023-03-10T10:19:48.091Z,78.30
2023-03-10T10:22:26.407Z,78.30
2023-03-10T10:25:08.811Z,78.20
2023-03-10T10:27:36.572Z,78.10
2023-03-10T10:30:26.899Z,78.10
2023-03-10T10:33:12.055Z,77.60
2023-03-10T10:35:41.943Z,77.50
2023-03-10T10:38:11.574Z,77.50
2023-03-10T10:40:51.870Z,77.40
2023-03-10T10:43:20.027Z,77.20
2023-03-10T10:46:15.126Z,77.00
2023-03-10T10:48:46.192Z,77.30
2023-03-10T10:51:28.860Z,77.30
2023-03-10T10:53:57.420Z,77.50
2023-03-10T10:56:25.216Z,77.60
2023-03-10T10:59:21.915Z,77.50
2023-03-10T11:01:53.002Z,77.40
2023-03-10T11:04:21.322Z,77.20
2023-03-10T11:06:49.226Z,77.00
2023-03-10T11:09:21.224Z,76.60
2023-03-10T11:11:54.557Z,76.50
2023-03-10T11:14:40.872Z,76.50
2023-03-10T11:17:28.558Z,76.70
2023-03-10T11:20:15.598Z,76.50
2023-03-10T11:23:03.694Z,76.40
2023-03-10T11:25:40.654Z,76.60
2023-03-10T11:28:23.026Z,76.80
2023-03-10T11:31:05.078Z,76.80
2023-03-10T11:33:46.483Z,76.80
2023-03-10T11:36:27.040Z,76.60
2023-03-10T11:39:05.952Z,76.90
2023-03-10T11:41:39.781Z,76.80
2023-03-10T11:44:17.672Z,77.10
2023-03-10T11:46:53.353Z,76.80
2023-03-10T11:49:24.395Z,76.90
2023-03-10T11:51:56.602Z,76.80
2023-03-10T11:54:30.271Z,76.80
2023-03-10T11:56:59.389Z,76.90
2023-03-10T11:59:32.312Z,76.80
2023-03-10T12:02:00.898Z,76.80
2023-03-10T12:04:36.548Z,76.70
2023-03-10T12:07:03.723Z,76.60
2023-03-10T12:09:48.241Z,76.50
2023-03-10T12:12:28.550Z,76.60
2023-03-10T12:14:56.886Z,76.60
2023-03-10T12:17:23.760Z,76.60
2023-03-10T12:20:15.629Z,76.80
2023-03-10T12:22:50.390Z,76.80
2023-03-10T12:25:29.795Z,76.90
2023-03-10T12:28:24.782Z,76.90
2023-03-10T12:31:00.313Z,76.70
2023-03-10T12:33:42.323Z,76.30
2023-03-10T12:36:32.842Z,76.30
2023-03-10T12:39:24.647Z,76.60
2023-03-10T12:41:56.281Z,76.80
2023-03-10T12:44:41.941Z,76.80
2023-03-10T12:47:09.069Z,76.90
2023-03-10T12:49:46.704Z,76.60
2023-03-10T12:52:24.524Z,76.70
2023-03-10T12:55:19.159Z,76.50
2023-03-10T12:57:57.814Z,76.40
2023-03-10T13:00:58.432Z,76.20
2023-03-10T13:03:38.165Z,76.30
2023-03-10T13:06:11.396Z,76.20
2023-03-10T13:08:45.257Z,76.30
2023-03-10T13:11:18.285Z,76.30
2023-03-10T13:13:50.819Z,76.50
2023-03-10T13:16:19.740Z,76.50
2023-03-10T13:18:52.280Z,75.80
2023-03-10T13:21:28.690Z,76.00
2023-03-10T13:23:57.170Z,75.60
2023-03-10T13:26:25.284Z,75.90
2023-03-10T13:28:58.062Z,75.70
2023-03-10T13:31:28.305Z,75.90
2023-03-10T13:33:56.091Z,75.60
2023-03-10T13:36:37.683Z,75.70
2023-03-10T13:39:27.376Z,75.80
2023-03-10T13:42:00.397Z,75.30
2023-03-10T13:44:39.545Z,75.40
2023-03-10T13:47:24.591Z,75.30
2023-03-10T13:49:58.050Z,75.80
2023-03-10T13:52:27.898Z,75.60
2023-03-10T13:55:17.205Z,75.50
2023-03-10T13:57:46.045Z,75.70
2023-03-10T14:00:17.254Z,75.50
2023-03-10T14:02:46.630Z,75.40
2023-03-10T14:05:40.671Z,74.90
2023-03-10T14:08:17.220Z,74.70
2023-03-10T14:10:44.023Z,74.90
2023-03-10T14:13:40.176Z,74.80
2023-03-10T14:16:07.835Z,74.60
2023-03-10T14:18:36.664Z,74.20
2023-03-10T14:21:27.035Z,74.30
2023-03-10T14:23:56.919Z,74.30
2023-03-10T14:26:23.911Z,74.50
2023-03-10T14:28:50.826Z,74.60
2023-03-10T14:31:23.767Z,74.50
2023-03-10T14:33:51.708Z,74.50
2023-03-10T14:36:18.711Z,74.60
2023-03-10T14:38:46.056Z,74.70
2023-03-10T14:41:14.100Z,74.80
2023-03-10T14:44:01.227Z,74.90
2023-03-10T14:46:48.101Z,75.10
2023-03-10T14:49:16.337Z,75.30
2023-03-10T14:51:43.138Z,75.20
2023-03-10T14:54:23.298Z,75.30
2023-03-10T14:56:58.853Z,75.40
2023-03-10T14:59:27.894Z,75.50
2023-03-10T15:01:56.566Z,75.60
2023-03-10T15:04:23.549Z,75.70
2023-03-10T15:06:50.854Z,75.90
2023-03-10T15:09:19.704Z,75.90
2023-03-10T15:11:46.592Z,76.00
2023-03-10T15:14:19.260Z,76.10
2023-03-10T15:16:46.413Z,76.20
2023-03-10T15:19:39.651Z,76.40
2023-03-10T15:22:06.525Z,76.60
2023-03-10T15:24:33.373Z,76.60
2023-03-10T15:27:00.474Z,76.60
2023-03-10T15:29:27.414Z,76.60
2023-03-10T15:31:54.360Z,76.70
2023-03-10T15:34:21.322Z,77.00
2023-03-10T15:36:48.108Z,77.30
2023-03-10T15:39:29.001Z,77.30
2023-03-10T15:41:58.160Z,77.50
2023-03-10T15:44:24.981Z,77.60
2023-03-10T15:46:54.862Z,77.50
2023-03-10T15:49:21.866Z,77.50
2023-03-10T15:51:48.807Z,77.50
2023-03-10T15:54:15.762Z,77.40
2023-03-10T15:56:42.840Z,77.30
2023-03-10T15:59:09.854Z,77.30
2023-03-10T16:01:37.079Z,77.30
2023-03-10T16:04:06.013Z,77.40
2023-03-10T16:06:34.049Z,77.40
2023-03-10T16:09:01.459Z,77.40
2023-03-10T16:11:28.489Z,77.40
2023-03-10T16:13:55.490Z,77.30
2023-03-10T16:16:23.701Z,77.50
2023-03-10T16:18:51.018Z,77.50
2023-03-10T16:21:18.333Z,77.50
2023-03-10T16:23:45.974Z,77.50
2023-03-10T16:26:17.284Z,77.30
2023-03-10T16:28:50.640Z,77.20
2023-03-10T16:31:19.944Z,77.30
2023-03-10T16:33:48.400Z,77.40
2023-03-10T16:36:18.439Z,77.40
2023-03-10T16:38:45.986Z,77.40
2023-03-10T16:41:13.259Z,77.40
2023-03-10T16:43:40.692Z,77.50
2023-03-10T16:46:17.491Z,77.50
2023-03-10T16:48:46.008Z,77.30
2023-03-10T16:51:40.005Z,77.30
2023-03-10T16:54:18.753Z,77.20
2023-03-10T16:56:49.898Z,77.20
2023-03-10T16:59:20.100Z,77.10
2023-03-10T17:01:47.934Z,77.00
2023-03-10T17:04:15.173Z,76.90
2023-03-10T17:06:43.024Z,76.80
2023-03-10T17:09:11.673Z,76.80
2023-03-10T17:11:41.169Z,76.60
2023-03-10T17:14:11.161Z,76.60
2023-03-10T17:16:38.619Z,76.40
2023-03-10T17:19:13.463Z,76.30
2023-03-10T17:21:45.712Z,76.20
2023-03-10T17:24:15.040Z,76.20
2023-03-10T17:26:42.757Z,76.10
2023-03-10T17:29:10.247Z,76.20
2023-03-10T17:31:38.067Z,76.10
2023-03-10T17:34:08.146Z,75.90
2023-03-10T17:36:35.221Z,75.80
2023-03-10T17:39:03.940Z,75.90
2023-03-10T17:41:32.481Z,75.80
2023-03-10T17:43:59.344Z,75.80
2023-03-10T17:46:28.945Z,75.80
2023-03-10T17:48:56.311Z,75.70
2023-03-10T17:51:28.742Z,75.50
2023-03-10T17:53:58.361Z,75.40
2023-03-10T17:56:25.830Z,75.40
2023-03-10T17:58:54.029Z,75.40
2023-03-10T18:01:23.382Z,75.40
2023-03-10T18:03:50.316Z,75.40
2023-03-10T18:06:22.821Z,75.40
2023-03-10T18:08:50.989Z,75.30
2023-03-10T18:11:19.962Z,75.40
2023-03-10T18:13:48.069Z,75.30
2023-03-10T18:16:21.050Z,75.20
2023-03-10T18:18:47.953Z,75.10
2023-03-10T18:21:16.398Z,75.10
2023-03-10T18:23:43.231Z,75.20
2023-03-10T18:26:13.921Z,75.40
2023-03-10T18:28:41.237Z,75.50
2023-03-10T18:31:18.509Z,75.50
2023-03-10T18:33:46.007Z,75.50
2023-03-10T18:36:14.762Z,75.60
2023-03-10T18:38:41.704Z,75.70
2023-03-10T18:41:08.728Z,75.70
2023-03-10T18:43:36.094Z,75.80
2023-03-10T18:46:03.460Z,75.70
2023-03-10T18:48:30.534Z,75.70
2023-03-10T18:50:58.960Z,75.70
2023-03-10T18:53:26.702Z,76.60
2023-03-10T18:55:53.944Z,75.70
2023-03-10T18:58:21.709Z,75.60
2023-03-10T19:00:48.995Z,75.60
2023-03-10T19:03:16.577Z,75.40
2023-03-10T19:05:44.133Z,75.20
2023-03-10T19:08:11.955Z,75.20
2023-03-10T19:10:39.542Z,75.10
2023-03-10T19:13:07.670Z,75.10
2023-03-10T19:15:36.708Z,75.00
2023-03-10T19:18:04.304Z,74.90
2023-03-10T19:20:31.162Z,75.00
2023-03-10T19:22:58.080Z,74.90
2023-03-10T19:25:24.952Z,74.90
2023-03-10T19:27:51.856Z,74.80
2023-03-10T19:30:20.204Z,74.90
2023-03-10T19:32:47.819Z,74.80
2023-03-10T19:35:15.744Z,74.50
2023-03-10T19:37:47.157Z,74.50
2023-03-10T19:40:17.173Z,74.40
2023-03-10T19:42:44.252Z,74.30
2023-03-10T19:45:14.152Z,74.20
2023-03-10T19:47:41.709Z,73.80
2023-03-10T19:50:10.711Z,73.80
2023-03-10T19:52:38.979Z,73.60
2023-03-10T19:55:09.510Z,73.40
2023-03-10T19:57:36.786Z,73.40
2023-03-10T20:00:08.747Z,73.10
2023-03-10T20:02:35.743Z,73.00
2023-03-10T20:05:02.639Z,72.90
2023-03-10T20:07:29.662Z,72.80
2023-03-10T20:09:56.433Z,72.70
2023-03-10T20:12:23.356Z,72.60
2023-03-10T20:14:50.763Z,72.60
2023-03-10T20:17:19.282Z,72.40
2023-03-10T20:19:46.256Z,72.20
2023-03-10T20:22:15.159Z,72.20
2023-03-10T20:24:42.017Z,72.10
2023-03-10T20:27:08.826Z,72.10
2023-03-10T20:29:35.664Z,71.90
2023-03-10T20:32:04.338Z,71.90
2023-03-10T20:34:31.833Z,71.90
2023-03-10T20:36:58.671Z,72.00
2023-03-10T20:39:25.561Z,71.90
2023-03-10T20:41:52.500Z,71.80
2023-03-10T20:44:19.672Z,71.50
2023-03-10T20:46:46.574Z,71.30
2023-03-10T20:49:13.494Z,71.30
2023-03-10T20:51:40.647Z,71.40
2023-03-10T20:54:07.861Z,71.30
2023-03-10T20:56:34.773Z,71.50
2023-03-10T20:59:01.910Z,71.30
2023-03-10T21:01:30.629Z,71.20
2023-03-10T21:03:58.523Z,71.20
2023-03-10T21:06:27.037Z,71.20
2023-03-10T21:08:53.989Z,71.10
2023-03-10T21:11:21.688Z,71.00
2023-03-10T21:13:48.776Z,70.90
2023-03-10T21:16:15.698Z,70.70
2023-03-10T21:18:42.605Z,70.70
2023-03-10T21:21:10.130Z,70.60
2023-03-10T21:23:42.957Z,70.80
2023-03-10T21:26:12.663Z,71.00
2023-03-10T21:28:39.979Z,71.30
2023-03-10T21:31:07.342Z,71.20
2023-03-10T21:33:34.846Z,72.10
2023-03-10T21:36:02.447Z,71.20
2023-03-10T21:38:29.394Z,71.20
2023-03-10T21:40:56.939Z,71.20
2023-03-10T21:43:26.508Z,71.20
2023-03-10T21:45:53.492Z,71.10
2023-03-10T21:48:20.501Z,71.10
2023-03-10T21:50:47.320Z,71.00
2023-03-10T21:53:14.306Z,70.70
2023-03-10T21:55:41.792Z,70.70
2023-03-10T21:58:08.612Z,70.50
2023-03-10T22:00:36.388Z,70.40
2023-03-10T22:03:04.538Z,70.10
2023-03-10T22:05:31.393Z,69.80
2023-03-10T22:07:59.248Z,69.50
2023-03-10T22:10:26.473Z,69.50
2023-03-10T22:12:53.460Z,69.40
2023-03-10T22:15:25.274Z,69.20
2023-03-10T22:17:53.299Z,69.00
2023-03-10T22:20:23.900Z,68.90
2023-03-10T22:22:51.257Z,68.60
2023-03-10T22:25:18.407Z,68.40
2023-03-10T22:27:49.360Z,69.20
2023-03-10T22:30:16.328Z,68.10
2023-03-10T22:32:43.569Z,67.90
2023-03-10T22:35:10.808Z,67.80
2023-03-10T22:37:39.288Z,67.10
2023-03-10T22:40:10.283Z,67.00
2023-03-10T22:42:38.507Z,66.90
2023-03-10T22:45:32.250Z,66.60
2023-03-10T22:48:01.690Z,66.50
2023-03-10T22:50:40.207Z,66.40
2023-03-10T22:53:12.275Z,66.10
2023-03-10T22:55:39.269Z,66.10
2023-03-10T22:58:07.269Z,66.00
2023-03-10T23:00:34.811Z,65.80
2023-03-10T23:03:01.976Z,65.90
2023-03-10T23:05:29.253Z,65.80
2023-03-10T23:07:56.505Z,65.80
2023-03-10T23:10:29.741Z,65.80
2023-03-10T23:12:59.499Z,65.70
2023-03-10T23:15:30.024Z,65.80
2023-03-10T23:17:56.966Z,65.80
2023-03-10T23:20:27.625Z,65.80
2023-03-10T23:22:56.642Z,65.90
2023-03-10T23:25:31.591Z,65.90
2023-03-10T23:27:58.583Z,65.50
2023-03-10T23:30:26.090Z,65.40
2023-03-10T23:32:53.663Z,65.40
2023-03-10T23:35:25.042Z,65.10
2023-03-10T23:37:52.031Z,64.50
2023-03-10T23:40:21.032Z,64.30
2023-03-10T23:42:48.095Z,63.90
2023-03-10T23:45:18.302Z,63.60
2023-03-10T23:47:45.953Z,63.20
2023-03-10T23:50:35.150Z,62.90
2023-03-10T23:53:03.191Z,62.90
2023-03-10T23:55:33.177Z,62.90
2023-03-10T23:58:00.307Z,62.80
